Time;durP1;ratioP1;P1;durP2;ratioP2;P2;SDS_P1;SDS_P2;PMS_P1;PMS_P2;Temp;Humidity;BMP_temperature;BMP_pressure;BME280_temperature;BME280_humidity;BME280_pressure;Samples;Min_cycle;Max_cycle;Signal;HPM_P1;HPM_P2
2022/12/23 00:01:08;;;;;;;12.77;3.30;;;;;;;11.59;70.06;96948.47;8447549;28;20234;-68
2022/12/23 00:05:12;;;;;;;14.53;3.67;;;;;;;11.44;69.67;96945.94;8448069;28;20634;-68
2022/12/23 00:09:15;;;;;;;9.93;3.13;;;;;;;11.57;69.72;96945.13;8447882;28;20230;-68
2022/12/23 00:17:42;;;;;;;11.33;3.50;;;;;;;11.48;69.95;96943.97;8447553;28;20227;-68
2022/12/23 00:21:45;;;;;;;9.07;3.10;;;;;;;11.53;69.68;96947.09;8447512;28;20238;-67
2022/12/23 00:25:48;;;;;;;11.87;3.40;;;;;;;11.41;70.52;96940.94;8447653;28;20231;-67
2022/12/23 00:29:52;;;;;;;12.33;3.37;;;;;;;11.57;69.36;96930.41;8447554;28;20224;-68
2022/12/23 00:33:55;;;;;;;8.13;2.57;;;;;;;11.59;69.26;96933.72;8446809;28;20232;-68
2022/12/23 00:37:58;;;;;;;9.47;3.27;;;;;;;11.49;69.29;96930.06;8447067;28;20227;-68
2022/12/23 00:46:22;;;;;;;10.20;3.10;;;;;;;11.53;68.41;96915.97;8446992;28;20228;-67
2022/12/23 00:50:24;;;;;;;9.87;2.97;;;;;;;11.53;68.98;96919.41;8446968;28;20244;-68
2022/12/23 00:54:27;;;;;;;10.07;3.07;;;;;;;11.58;68.61;96920.88;8446719;28;20227;-67
2022/12/23 00:58:30;;;;;;;8.83;2.80;;;;;;;11.59;68.53;96920.75;8446598;28;20411;-67
2022/12/23 01:06:55;;;;;;;9.50;2.90;;;;;;;11.30;68.69;96904.50;8446004;28;20230;-68
2022/12/23 01:11:02;;;;;;;8.03;2.97;;;;;;;11.12;68.54;96847.75;8446315;28;20236;-68
2022/12/23 01:15:06;;;;;;;11.97;2.80;;;;;;;11.57;68.87;96908.84;8446131;28;20228;-67
2022/12/23 01:19:12;;;;;;;9.33;2.90;;;;;;;11.17;70.35;96908.81;8445747;28;20239;-69
2022/12/23 01:23:15;;;;;;;9.40;2.90;;;;;;;11.53;68.41;96913.38;8445596;28;20238;-68
2022/12/23 01:27:17;;;;;;;8.77;2.63;;;;;;;11.42;69.26;96915.84;8446086;28;20223;-67
2022/12/23 01:31:20;;;;;;;8.43;2.23;;;;;;;11.46;69.42;96915.56;8446040;28;20418;-67
2022/12/23 01:35:24;;;;;;;7.37;2.77;;;;;;;11.45;69.04;96918.25;8445794;28;20223;-67
2022/12/23 01:39:27;;;;;;;9.90;2.80;;;;;;;11.27;69.79;96881.38;8445633;28;20228;-67
2022/12/23 01:43:46;;;;;;;9.57;2.70;;;;;;;11.27;70.48;96896.91;8445498;28;20531;-67
2022/12/23 01:47:50;;;;;;;7.47;2.87;;;;;;;11.35;69.59;96900.69;8445868;28;20228;-68
2022/12/23 01:51:55;;;;;;;7.87;2.53;;;;;;;11.49;69.25;96897.19;8445167;28;20231;-67
2022/12/23 01:56:00;;;;;;;7.90;3.60;;;;;;;11.39;70.09;96895.31;8445574;28;20230;-68
2022/12/23 02:04:24;;;;;;;9.07;2.47;;;;;;;11.39;69.84;96887.53;8445373;28;20228;-68
2022/12/23 02:13:09;;;;;;;8.97;2.80;;;;;;;11.27;69.33;96894.31;8444058;28;20231;-68
2022/12/23 02:17:18;;;;;;;10.03;3.17;;;;;;;11.06;69.35;96840.38;8445256;28;20338;-68
2022/12/23 02:21:34;;;;;;;10.33;2.83;;;;;;;11.50;69.31;96923.97;8445199;28;20231;-67
2022/12/23 02:25:53;;;;;;;10.00;3.00;;;;;;;11.42;69.67;96914.06;8447302;28;20232;-68
2022/12/23 02:30:31;;;;;;;8.27;2.97;;;;;;;11.24;71.15;96908.31;8450314;28;20231;-68
2022/12/23 02:34:38;;;;;;;11.00;3.13;;;;;;;11.42;70.33;96916.66;8451087;28;20227;-68
2022/12/23 02:38:46;;;;;;;6.33;2.67;;;;;;;11.44;70.08;96914.84;8450735;28;20410;-67
2022/12/23 02:42:54;;;;;;;7.77;2.90;;;;;;;11.49;69.71;96915.34;8450562;28;20297;-68
2022/12/23 02:47:01;;;;;;;10.33;3.33;;;;;;;11.04;70.04;96850.00;8450309;28;20395;-68
2022/12/23 02:51:06;;;;;;;8.87;3.00;;;;;;;11.32;71.06;96916.44;8450592;28;20234;-67
2022/12/23 02:55:12;;;;;;;6.47;2.57;;;;;;;11.46;70.15;96900.00;8450338;28;20330;-68
2022/12/23 02:59:18;;;;;;;6.70;2.53;;;;;;;11.42;70.79;96898.53;8450481;28;20231;-68
2022/12/23 03:03:22;;;;;;;6.17;2.47;;;;;;;11.38;70.83;96897.06;8450213;28;20377;-68
2022/12/23 03:07:30;;;;;;;7.17;2.57;;;;;;;11.41;70.93;96891.69;8438977;28;20247;-67
2022/12/23 03:11:41;;;;;;;5.77;2.30;;;;;;;11.48;70.26;96899.88;8449941;28;20231;-68
2022/12/23 03:15:46;;;;;;;4.73;2.60;;;;;;;11.25;71.50;96902.22;8449866;28;20223;-68
2022/12/23 03:19:54;;;;;;;4.03;2.53;;;;;;;11.51;70.26;96902.28;8449508;28;20550;-68
2022/12/23 03:24:05;;;;;;;4.23;2.33;;;;;;;11.53;70.44;96903.03;8449043;28;20223;-68
2022/12/23 03:28:11;;;;;;;4.47;2.13;;;;;;;11.58;70.36;96906.16;8449011;28;20240;-68
2022/12/23 03:32:16;;;;;;;3.67;2.30;;;;;;;11.62;70.55;96914.56;8449012;28;20417;-68
2022/12/23 03:36:23;;;;;;;2.87;2.17;;;;;;;10.60;71.01;96778.53;8449171;28;20216;-68
2022/12/23 03:40:28;;;;;;;4.17;2.53;;;;;;;11.48;70.18;96912.84;8447451;28;20243;-68
2022/12/23 03:44:34;;;;;;;3.57;2.30;;;;;;;11.11;72.06;96899.66;8448891;28;20228;-67
2022/12/23 03:48:40;;;;;;;4.70;2.47;;;;;;;11.55;70.35;96911.53;8448557;28;20223;-67
2022/12/23 03:52:48;;;;;;;4.57;3.03;;;;;;;11.51;70.30;96910.06;8448248;28;20236;-68
2022/12/23 03:56:54;;;;;;;4.63;2.57;;;;;;;11.31;71.72;96921.72;8448367;28;20227;-68
2022/12/23 04:01:08;;;;;;;3.43;2.57;;;;;;;11.51;70.98;96910.06;8447755;28;20254;-68
2022/12/23 04:05:18;;;;;;;4.17;2.53;;;;;;;11.42;70.80;96908.06;8447890;28;20236;-68
2022/12/23 04:09:23;;;;;;;3.80;2.70;;;;;;;11.44;71.04;96925.19;8448034;28;20224;-68
2022/12/23 04:13:26;;;;;;;3.60;2.53;;;;;;;11.52;70.74;96932.50;8447777;28;20395;-67
2022/12/23 04:17:29;;;;;;;5.10;3.50;;;;;;;11.65;70.35;96937.69;8447803;28;20247;-68
2022/12/23 04:21:32;;;;;;;3.97;2.73;;;;;;;11.65;69.98;96933.34;8447525;28;20410;-68
2022/12/23 04:25:36;;;;;;;3.43;2.43;;;;;;;11.67;69.72;96941.00;8447353;28;20239;-68
2022/12/23 04:29:39;;;;;;;5.07;2.47;;;;;;;11.63;70.38;96940.41;8447305;28;20399;-67
2022/12/23 04:33:42;;;;;;;3.53;3.17;;;;;;;11.72;69.82;96934.59;8447377;28;20231;-68
2022/12/23 04:37:45;;;;;;;3.43;3.13;;;;;;;11.58;70.52;96947.63;8447288;28;20228;-68
2022/12/23 04:41:49;;;;;;;3.13;2.70;;;;;;;11.59;70.47;96948.47;8446928;28;20562;-69
2022/12/23 04:45:53;;;;;;;4.93;2.50;;;;;;;11.69;70.18;96949.50;8446353;28;20455;-67
2022/12/23 04:49:55;;;;;;;2.97;2.43;;;;;;;11.61;70.47;96947.41;8446386;28;20230;-66
2022/12/23 04:53:58;;;;;;;2.43;1.90;;;;;;;11.74;70.73;96961.25;8446521;28;20407;-66
2022/12/23 04:58:02;;;;;;;2.40;1.90;;;;;;;11.72;70.78;96972.66;8446555;28;20235;-66
2022/12/23 05:02:05;;;;;;;2.20;1.60;;;;;;;11.58;71.96;96973.56;8446263;28;20224;-67
2022/12/23 05:06:08;;;;;;;2.63;1.97;;;;;;;11.60;72.19;96970.88;8446652;28;20517;-68
2022/12/23 05:10:11;;;;;;;2.03;1.60;;;;;;;11.70;72.21;96977.94;8446379;28;20235;-68
2022/12/23 05:14:15;;;;;;;2.40;1.37;;;;;;;11.68;73.08;96990.19;8446113;28;20231;-68
2022/12/23 05:18:18;;;;;;;1.67;1.10;;;;;;;11.69;73.54;96993.59;8446004;28;20230;-68
2022/12/23 05:22:21;;;;;;;0.90;0.90;;;;;;;11.65;73.79;96995.59;8446304;28;20240;-68
2022/12/23 05:26:24;;;;;;;1.10;1.00;;;;;;;11.77;73.28;96993.97;8446052;28;20220;-67
2022/12/23 05:30:29;;;;;;;1.83;1.20;;;;;;;11.82;73.25;96999.69;8445780;28;20368;-67
2022/12/23 05:34:31;;;;;;;1.03;1.03;;;;;;;11.77;73.46;97009.53;8446070;28;20223;-67
2022/12/23 05:38:34;;;;;;;1.10;1.10;;;;;;;11.83;73.65;97009.13;8445986;28;20219;-68
2022/12/23 05:42:37;;;;;;;1.10;1.10;;;;;;;11.83;73.09;96990.97;8445822;28;20235;-68
2022/12/23 05:46:41;;;;;;;0.97;0.97;;;;;;;11.98;72.95;97003.91;8445503;28;20524;-68
2022/12/23 05:50:44;;;;;;;1.40;1.17;;;;;;;11.97;72.41;97017.81;8445762;28;20299;-68
2022/12/23 05:54:47;;;;;;;1.33;1.10;;;;;;;11.97;72.20;97012.63;8445608;28;20300;-68
2022/12/23 05:58:50;;;;;;;1.00;1.00;;;;;;;11.98;72.58;97024.69;8445596;28;20228;-68
2022/12/23 06:02:54;;;;;;;0.90;0.90;;;;;;;12.00;72.75;97026.22;8450907;28;20259;-68
2022/12/23 06:06:57;;;;;;;0.97;0.93;;;;;;;12.03;72.55;97044.22;8452117;28;20231;-67
2022/12/23 06:11:00;;;;;;;1.23;0.90;;;;;;;11.93;72.65;97049.13;8451647;28;20228;-67
2022/12/23 06:15:04;;;;;;;0.90;0.90;;;;;;;11.92;72.78;97052.66;8451901;28;20227;-67
2022/12/23 06:19:08;;;;;;;0.90;0.90;;;;;;;12.09;72.30;97048.16;8451514;28;20232;-67
2022/12/23 06:23:11;;;;;;;1.30;1.20;;;;;;;12.06;72.16;97050.94;8451425;28;20239;-67
2022/12/23 06:27:14;;;;;;;1.20;1.10;;;;;;;12.10;71.94;97044.63;8451190;28;20216;-67
2022/12/23 06:31:17;;;;;;;1.83;0.97;;;;;;;12.08;72.15;97059.47;8451437;28;20500;-68
2022/12/23 06:35:21;;;;;;;0.90;0.90;;;;;;;12.14;72.68;97069.44;8451075;28;20228;-67
2022/12/23 06:39:24;;;;;;;2.67;1.00;;;;;;;11.95;72.20;97054.22;8450733;28;20221;-67
2022/12/23 06:43:26;;;;;;;0.80;0.67;;;;;;;11.93;72.67;97074.25;8450618;28;20227;-67
2022/12/23 06:47:29;;;;;;;0.80;0.80;;;;;;;12.01;72.84;97092.75;8450359;28;20226;-67
2022/12/23 06:51:33;;;;;;;1.30;1.10;;;;;;;12.02;72.70;97093.59;8450666;28;20232;-68
2022/12/23 06:55:36;;;;;;;0.90;0.90;;;;;;;12.02;72.83;97094.44;8450419;28;20422;-67
2022/12/23 06:59:39;;;;;;;1.53;1.00;;;;;;;12.05;71.97;97088.19;8450160;28;20417;-67
2022/12/23 07:03:42;;;;;;;0.90;0.80;;;;;;;12.00;72.41;97098.06;8449867;28;20536;-67
2022/12/23 07:07:46;;;;;;;1.33;0.90;;;;;;;12.13;71.63;97099.75;8450178;28;20349;-67
2022/12/23 07:11:49;;;;;;;1.43;0.70;;;;;;;12.15;71.48;97104.00;8449012;28;20235;-67
2022/12/23 07:15:52;;;;;;;1.20;1.10;;;;;;;12.10;71.06;97099.13;8449663;28;20228;-67
2022/12/23 07:19:54;;;;;;;1.20;1.03;;;;;;;11.97;71.42;97098.25;8448716;28;20232;-67
2022/12/23 07:23:59;;;;;;;1.00;1.00;;;;;;;12.13;71.38;97127.47;8449372;28;20544;-67
2022/12/23 07:28:01;;;;;;;1.07;0.97;;;;;;;12.13;71.07;97117.09;8449345;28;20233;-67
2022/12/23 07:32:04;;;;;;;1.90;0.90;;;;;;;12.20;71.27;97133.94;8448976;28;20299;-67
2022/12/23 07:36:08;;;;;;;2.70;0.93;;;;;;;12.09;71.60;97139.81;8448808;28;20588;-67
2022/12/23 07:40:13;;;;;;;2.20;0.60;;;;;;;11.90;70.94;97101.22;8448644;28;20525;-67
2022/12/23 07:44:16;;;;;;;0.50;0.50;;;;;;;12.20;71.12;97130.50;8448756;28;20554;-68
2022/12/23 07:48:19;;;;;;;1.43;1.00;;;;;;;12.20;70.70;97128.72;8448626;28;20227;-68
2022/12/23 07:52:24;;;;;;;0.90;0.90;;;;;;;12.11;70.44;97137.13;8448633;28;20522;-67
2022/12/23 07:56:28;;;;;;;2.53;1.70;;;;;;;11.99;70.62;97112.78;8448611;28;20387;-68
2022/12/23 08:00:30;;;;;;;1.17;0.90;;;;;;;12.22;70.22;97131.25;8448425;28;20232;-68
2022/12/23 08:04:33;;;;;;;1.50;0.80;;;;;;;12.27;70.54;97122.22;8448400;28;20231;-68
2022/12/23 08:08:37;;;;;;;1.77;0.80;;;;;;;12.30;69.96;97127.22;8448231;28;20227;-68
2022/12/23 08:12:41;;;;;;;0.60;0.60;;;;;;;12.16;69.85;97132.47;8448023;28;20222;-67
2022/12/23 08:16:44;;;;;;;0.80;0.80;;;;;;;12.24;70.09;97135.41;8447730;28;20232;-68
2022/12/23 08:20:53;;;;;;;1.30;1.20;;;;;;;12.43;69.30;97121.22;8447733;28;20292;-68
2022/12/23 08:24:58;;;;;;;0.70;0.70;;;;;;;12.42;69.58;97129.97;8446282;28;20400;-68
2022/12/23 08:29:02;;;;;;;2.30;0.70;;;;;;;12.45;69.60;97142.72;8447359;28;20296;-68
2022/12/23 08:33:05;;;;;;;2.20;1.50;;;;;;;12.58;69.33;97150.56;8447417;28;20550;-68
2022/12/23 08:37:07;;;;;;;2.07;1.20;;;;;;;12.66;69.32;97169.91;8447203;28;20231;-69
2022/12/23 08:41:11;;;;;;;0.70;0.70;;;;;;;12.71;69.54;97193.81;8446922;28;20302;-68
2022/12/23 08:45:15;;;;;;;1.03;0.80;;;;;;;12.65;69.69;97191.63;8446805;28;20327;-68
2022/12/23 08:49:18;;;;;;;1.33;0.53;;;;;;;12.63;69.76;97192.66;8446776;28;20246;-69
2022/12/23 08:53:21;;;;;;;0.90;0.70;;;;;;;12.59;70.02;97202.41;8446532;28;20227;-68
2022/12/23 08:57:24;;;;;;;1.83;1.10;;;;;;;12.86;70.99;97191.97;8446428;28;20493;-67
2022/12/23 09:01:29;;;;;;;0.60;0.60;;;;;;;12.61;70.05;97160.75;8446527;28;20224;-67
2022/12/23 09:05:33;;;;;;;2.00;0.83;;;;;;;12.75;70.28;97183.22;8446140;28;20230;-68
2022/12/23 09:09:37;;;;;;;2.73;1.70;;;;;;;12.69;70.22;97185.28;8446187;28;20233;-66
2022/12/23 09:13:40;;;;;;;2.07;1.23;;;;;;;12.74;70.24;97182.41;8446490;28;20250;-67
2022/12/23 09:17:44;;;;;;;1.80;1.20;;;;;;;12.73;70.27;97159.94;8445950;28;20240;-67
2022/12/23 09:21:47;;;;;;;1.10;1.00;;;;;;;12.86;71.00;97167.78;8445853;28;20235;-66
2022/12/23 09:25:50;;;;;;;1.20;1.10;;;;;;;12.94;70.37;97173.28;8445919;28;20232;-67
2022/12/23 09:29:52;;;;;;;2.50;1.53;;;;;;;12.98;70.03;97173.91;8445155;28;20234;-69
2022/12/23 09:33:57;;;;;;;1.37;1.03;;;;;;;12.86;70.23;97150.41;8446995;28;20441;-68
2022/12/23 09:37:59;;;;;;;1.73;1.20;;;;;;;13.00;70.27;97162.47;8452947;28;20235;-67
2022/12/23 09:42:06;;;;;;;1.23;1.10;;;;;;;12.83;70.55;97152.38;8452716;28;20522;-68
2022/12/23 09:46:13;;;;;;;1.90;1.77;;;;;;;12.54;70.76;97091.97;8452841;28;20438;-68
2022/12/23 09:50:24;;;;;;;1.80;1.70;;;;;;;13.01;70.49;97160.72;8452243;28;20245;-68
2022/12/23 09:54:28;;;;;;;1.90;1.70;;;;;;;12.94;70.95;97162.88;8452128;28;20217;-68
2022/12/23 09:58:34;;;;;;;1.60;1.50;;;;;;;12.88;70.82;97150.31;8452285;28;20231;-68
2022/12/23 10:02:47;;;;;;;1.40;1.30;;;;;;;12.97;70.68;97157.50;8452152;28;20254;-68
2022/12/23 10:06:56;;;;;;;1.80;1.70;;;;;;;12.89;71.14;97162.38;8451925;28;20235;-68
2022/12/23 10:11:06;;;;;;;2.43;1.50;;;;;;;12.89;71.55;97171.00;8451237;28;20256;-67
2022/12/23 10:15:20;;;;;;;2.40;2.20;;;;;;;12.98;71.14;97173.91;8451776;28;20416;-67
2022/12/23 10:19:26;;;;;;;2.87;2.03;;;;;;;12.98;71.21;97166.94;8451340;28;20543;-67
2022/12/23 10:23:33;;;;;;;2.77;2.40;;;;;;;12.77;71.82;97161.41;8451222;28;20231;-67
2022/12/23 10:27:39;;;;;;;3.37;3.17;;;;;;;12.64;73.32;97144.97;8451364;28;20294;-67
2022/12/23 10:31:48;;;;;;;3.97;3.67;;;;;;;12.76;72.46;97161.53;8450770;28;20228;-67
2022/12/23 10:35:57;;;;;;;4.00;3.70;;;;;;;12.84;71.90;97149.69;8450969;28;20247;-68
2022/12/23 10:40:11;;;;;;;3.13;2.70;;;;;;;12.61;71.55;97093.22;8450491;28;20231;-67
2022/12/23 10:44:42;;;;;;;3.87;3.57;;;;;;;12.97;71.00;97151.47;8450632;28;20230;-67
2022/12/23 10:48:55;;;;;;;4.30;3.17;;;;;;;13.39;74.74;97152.94;8447710;28;20233;-67
2022/12/23 10:53:02;;;;;;;5.63;2.73;;;;;;;14.10;74.94;97155.81;8449980;28;20274;-67
2022/12/23 10:57:06;;;;;;;3.53;2.37;;;;;;;14.85;68.73;97163.41;8450241;28;20235;-67
2022/12/23 11:01:11;;;;;;;2.50;2.30;;;;;;;15.10;66.04;97143.31;8450283;28;20397;-67
2022/12/23 11:05:27;;;;;;;2.10;1.90;;;;;;;15.39;64.04;97138.47;8449727;28;20288;-68
2022/12/23 11:09:36;;;;;;;2.53;1.73;;;;;;;15.26;62.76;97109.03;8449566;28;20416;-67
2022/12/23 11:13:42;;;;;;;4.13;3.83;;;;;;;14.37;66.89;97139.13;8449681;28;20386;-68
2022/12/23 11:17:58;;;;;;;6.27;5.67;;;;;;;13.83;67.74;97114.38;8449413;28;20433;-68
2022/12/23 11:22:01;;;;;;;3.47;3.10;;;;;;;13.85;68.09;97133.31;8448573;28;20288;-65
2022/12/23 11:26:07;;;;;;;3.30;3.10;;;;;;;13.76;68.04;97124.34;8449071;28;20246;-67
2022/12/23 11:30:17;;;;;;;3.30;2.50;;;;;;;13.76;68.61;97115.72;8449388;28;20525;-68
2022/12/23 11:34:22;;;;;;;3.73;3.37;;;;;;;13.67;69.01;97105.03;8448985;28;20231;-68
2022/12/23 11:38:25;;;;;;;3.70;3.40;;;;;;;13.54;70.07;97095.63;8448836;28;20220;-70
2022/12/23 11:42:29;;;;;;;4.17;3.67;;;;;;;13.46;69.54;97080.53;8448650;28;20231;-68
2022/12/23 11:46:34;;;;;;;4.43;4.03;;;;;;;13.38;70.34;97099.25;8448607;28;20239;-68
2022/12/23 11:50:39;;;;;;;3.77;3.47;;;;;;;13.48;70.20;97086.47;8448514;28;20226;-68
2022/12/23 11:54:49;;;;;;;3.93;3.00;;;;;;;13.47;69.68;97067.41;8448375;28;20231;-68
2022/12/23 11:59:00;;;;;;;3.73;3.23;;;;;;;13.43;70.03;97063.38;8447195;28;20231;-69
2022/12/23 12:03:06;;;;;;;4.90;4.50;;;;;;;13.44;70.14;97062.44;8447886;28;20243;-68
2022/12/23 12:07:12;;;;;;;7.90;6.37;;;;;;;13.41;70.52;97064.44;8447853;28;20294;-68
2022/12/23 12:11:17;;;;;;;6.70;6.00;;;;;;;13.09;72.46;97059.66;8447671;28;20423;-67
2022/12/23 12:15:26;;;;;;;10.30;7.40;;;;;;;13.27;71.37;97058.38;8447683;28;20406;-68
2022/12/23 12:19:32;;;;;;;10.23;7.03;;;;;;;13.22;72.01;97052.66;8447546;28;20230;-69
2022/12/23 12:23:40;;;;;;;7.17;5.60;;;;;;;13.05;71.74;97035.63;8447708;28;20223;-68
2022/12/23 12:27:47;;;;;;;11.57;8.30;;;;;;;12.94;71.93;97012.16;8447413;28;20232;-67
2022/12/23 12:31:52;;;;;;;13.67;9.00;;;;;;;13.14;71.35;97015.16;8447216;28;20233;-68
2022/12/23 12:36:07;;;;;;;11.93;9.10;;;;;;;13.04;72.39;97039.19;8446741;28;20240;-69
2022/12/23 12:40:18;;;;;;;8.10;6.30;;;;;;;13.05;72.88;97033.03;8446656;28;20291;-68
2022/12/23 12:44:28;;;;;;;6.63;5.77;;;;;;;12.67;74.05;97026.09;8446909;28;20544;-69
2022/12/23 12:48:38;;;;;;;5.80;5.30;;;;;;;13.04;72.28;97010.59;8446960;28;20256;-68
2022/12/23 12:52:43;;;;;;;5.73;5.13;;;;;;;13.25;72.15;97015.22;8446991;28;20233;-68
2022/12/23 12:56:50;;;;;;;4.07;3.77;;;;;;;13.06;72.04;97000.94;8446753;28;20421;-68
2022/12/23 13:01:11;;;;;;;2.50;2.30;;;;;;;13.05;71.30;97029.63;8446397;28;20240;-69
2022/12/23 13:05:37;;;;;;;0.80;0.80;;;;;;;12.83;70.85;97014.66;8446359;28;20237;-68
2022/12/23 13:09:53;;;;;;;2.37;1.50;;;;;;;13.06;70.90;97007.88;8445984;28;20230;-68
2022/12/23 13:14:01;;;;;;;2.03;1.50;;;;;;;13.06;71.07;96993.13;8445397;28;20237;-69
2022/12/23 13:18:20;;;;;;;2.37;1.37;;;;;;;13.05;70.85;96981.06;8445410;28;20432;-69
2022/12/23 13:22:27;;;;;;;2.27;2.07;;;;;;;13.15;70.99;96970.84;8445960;28;20285;-68
2022/12/23 13:26:37;;;;;;;2.60;2.40;;;;;;;13.00;72.13;96961.53;8446099;28;20238;-68
2022/12/23 13:30:46;;;;;;;4.23;3.20;;;;;;;13.22;71.27;96968.66;8446025;28;20237;-68
2022/12/23 13:34:56;;;;;;;3.47;3.00;;;;;;;13.15;71.79;96959.63;8446100;28;20230;-68
2022/12/23 13:39:06;;;;;;;2.67;2.47;;;;;;;13.20;71.60;96958.34;8445280;28;20223;-68
2022/12/23 13:43:13;;;;;;;4.83;3.40;;;;;;;13.07;71.76;96948.00;8445527;28;20239;-68
2022/12/23 13:47:24;;;;;;;3.43;2.70;;;;;;;13.16;72.24;96940.50;8445665;28;20253;-68
2022/12/23 13:51:33;;;;;;;3.70;2.77;;;;;;;13.14;71.66;96930.22;8445680;28;20233;-69
2022/12/23 13:55:47;;;;;;;3.40;3.10;;;;;;;13.04;72.62;96927.44;8445326;28;20530;-69
2022/12/23 14:00:00;;;;;;;3.37;3.07;;;;;;;13.23;71.68;96919.16;8445181;28;20579;-69
2022/12/23 14:04:34;;;;;;;4.00;2.97;;;;;;;13.05;72.71;96920.47;8445306;28;20228;-68
2022/12/23 14:08:41;;;;;;;3.50;2.70;;;;;;;12.90;73.08;96905.00;8445533;28;20429;-68
2022/12/23 14:12:43;;;;;;;4.33;3.80;;;;;;;12.83;74.82;96905.53;8445228;28;20244;-68
2022/12/23 14:16:56;;;;;;;6.43;5.40;;;;;;;12.98;73.71;96891.47;8445260;28;20244;-68
2022/12/23 14:21:08;;;;;;;7.47;5.73;;;;;;;12.68;76.10;96894.47;8446173;28;20225;-68
2022/12/23 14:25:46;;;;;;;5.80;5.30;;;;;;;12.58;75.36;96889.06;8450999;28;20228;-68
2022/12/23 14:29:58;;;;;;;4.40;4.00;;;;;;;12.74;74.48;96872.41;8450495;28;20237;-69
2022/12/23 14:34:29;;;;;;;6.43;5.30;;;;;;;12.15;78.50;96875.63;8449636;28;20304;-69
2022/12/23 14:38:32;;;;;;;4.80;4.40;;;;;;;12.37;77.11;96852.44;8450071;28;20292;-69
2022/12/23 14:42:36;;;;;;;4.60;4.20;;;;;;;12.43;76.88;96869.38;8449753;28;20231;-67
2022/12/23 14:46:57;;;;;;;4.40;4.10;;;;;;;12.30;77.93;96852.06;8449486;28;20236;-68
2022/12/23 14:51:02;;;;;;;5.87;4.40;;;;;;;12.34;77.84;96834.50;8449070;28;20532;-68
2022/12/23 14:55:44;;;;;;;5.90;5.47;;;;;;;12.56;76.65;96840.78;8449317;28;20224;-68
2022/12/23 14:59:50;;;;;;;4.83;4.43;;;;;;;12.30;77.75;96839.06;8449070;28;20225;-68
2022/12/23 15:03:53;;;;;;;5.70;5.20;;;;;;;12.31;77.73;96832.09;8448188;28;20251;-68
2022/12/23 15:08:04;;;;;;;5.17;4.53;;;;;;;12.55;76.94;96826.16;8448785;28;20263;-67
2022/12/23 15:12:13;;;;;;;6.37;5.87;;;;;;;12.27;78.61;96825.47;8448615;28;20232;-68
2022/12/23 15:16:17;;;;;;;7.20;6.57;;;;;;;12.18;78.78;96813.94;8447969;28;20291;-67
2022/12/23 15:20:22;;;;;;;6.83;6.27;;;;;;;12.47;77.08;96798.94;8447946;28;20235;-67
2022/12/23 15:24:26;;;;;;;6.77;6.27;;;;;;;12.33;77.62;96805.09;8448442;28;20230;-67
2022/12/23 15:28:35;;;;;;;7.77;7.10;;;;;;;12.40;77.87;96789.09;8447832;28;20235;-67
2022/12/23 15:32:39;;;;;;;6.13;5.57;;;;;;;12.66;76.92;96803.66;8448008;28;20338;-67
2022/12/23 15:36:43;;;;;;;6.57;5.50;;;;;;;12.82;75.07;96810.38;8448369;28;20254;-67
2022/12/23 15:40:57;;;;;;;5.50;4.87;;;;;;;12.65;74.91;96762.22;8448344;28;20300;-68
2022/12/23 15:45:00;;;;;;;5.47;4.97;;;;;;;12.99;74.22;96799.56;8447968;28;20231;-68
2022/12/23 15:49:04;;;;;;;7.73;4.97;;;;;;;12.96;74.92;96796.38;8448143;28;20245;-67
2022/12/23 15:53:07;;;;;;;5.30;4.90;;;;;;;12.74;75.97;96761.56;8448319;28;20225;-67
2022/12/23 15:57:17;;;;;;;5.50;5.00;;;;;;;12.74;74.88;96745.13;8448243;28;20232;-67
2022/12/23 16:01:20;;;;;;;6.33;5.83;;;;;;;12.83;75.87;96784.28;8447437;28;20233;-67
2022/12/23 16:05:26;;;;;;;7.67;6.97;;;;;;;12.82;75.72;96772.22;8447349;28;20277;-68
2022/12/23 16:09:34;;;;;;;8.97;8.17;;;;;;;12.64;75.95;96760.53;8447627;28;20239;-68
2022/12/23 16:13:39;;;;;;;8.00;7.30;;;;;;;12.93;75.25;96774.03;8447167;28;20238;-67
2022/12/23 16:17:50;;;;;;;8.47;7.73;;;;;;;12.88;75.48;96758.78;8447116;28;20295;-67
2022/12/23 16:21:52;;;;;;;9.03;8.23;;;;;;;12.46;76.83;96718.56;8446521;28;20234;-68
2022/12/23 16:25:55;;;;;;;7.80;7.10;;;;;;;12.75;76.27;96739.00;8446736;28;20428;-67
2022/12/23 16:30:01;;;;;;;6.63;6.13;;;;;;;12.55;77.79;96717.09;8446686;28;20226;-67
2022/12/23 16:34:06;;;;;;;4.43;4.13;;;;;;;13.03;75.75;96732.63;8446605;28;20231;-67
2022/12/23 16:38:18;;;;;;;4.17;3.80;;;;;;;12.98;76.14;96722.53;8446572;28;20236;-67
2022/12/23 16:42:21;;;;;;;4.20;3.30;;;;;;;12.90;76.90;96707.53;8446135;28;20535;-67
2022/12/23 16:46:26;;;;;;;5.10;4.00;;;;;;;12.83;76.63;96690.75;8446007;28;20244;-67
2022/12/23 16:50:29;;;;;;;4.37;3.97;;;;;;;13.02;76.28;96700.63;8446634;28;20479;-68
2022/12/23 16:54:32;;;;;;;3.40;3.10;;;;;;;13.02;76.85;96710.16;8446122;28;20316;-68
2022/12/23 16:58:35;;;;;;;2.97;2.50;;;;;;;13.10;77.08;96718.25;8446022;28;20232;-68
2022/12/23 17:02:39;;;;;;;4.17;3.33;;;;;;;13.10;77.53;96708.66;8445460;28;20243;-68
2022/12/23 17:06:45;;;;;;;2.93;2.73;;;;;;;13.11;77.47;96705.09;8445981;28;20229;-67
2022/12/23 17:10:48;;;;;;;3.27;3.03;;;;;;;13.19;76.73;96711.50;8445948;28;20230;-68
2022/12/23 17:14:50;;;;;;;2.37;2.17;;;;;;;13.13;77.26;96710.19;8445625;28;20221;-67
2022/12/23 17:18:55;;;;;;;3.67;3.37;;;;;;;13.03;77.65;96678.88;8444899;28;20237;-67
2022/12/23 17:22:59;;;;;;;3.43;3.13;;;;;;;12.73;77.83;96636.97;8445373;28;20242;-69
2022/12/23 17:27:02;;;;;;;2.00;1.90;;;;;;;13.22;78.97;96713.88;8445225;28;20238;-69
2022/12/23 17:31:04;;;;;;;2.07;1.97;;;;;;;13.29;78.61;96713.31;8445006;28;20240;-68
2022/12/23 17:35:18;;;;;;;2.60;2.40;;;;;;;13.34;78.93;96710.38;8445184;28;20566;-67
2022/12/23 17:39:22;;;;;;;2.30;2.10;;;;;;;13.48;78.42;96723.19;8445337;28;20423;-67
2022/12/23 17:43:25;;;;;;;1.20;1.10;;;;;;;13.44;79.07;96731.31;8444799;28;20234;-67
2022/12/23 17:47:27;;;;;;;1.20;1.20;;;;;;;13.32;79.78;96727.88;8426959;28;20237;-69
2022/12/23 17:51:32;;;;;;;2.00;1.33;;;;;;;13.43;79.84;96727.88;8444716;28;20225;-68
2022/12/23 17:55:34;;;;;;;1.67;1.30;;;;;;;13.29;80.17;96723.72;8447079;28;20485;-67
2022/12/23 17:59:38;;;;;;;1.20;1.10;;;;;;;13.50;79.89;96723.06;8451267;28;20484;-68
2022/12/23 18:03:41;;;;;;;1.00;1.00;;;;;;;13.46;79.94;96721.63;8451373;28;20241;-67
2022/12/23 18:07:45;;;;;;;1.57;1.33;;;;;;;13.06;80.69;96673.44;8451267;28;20239;-67
2022/12/23 18:11:48;;;;;;;1.40;1.07;;;;;;;13.52;79.94;96746.34;8450975;28;20269;-68
2022/12/23 18:15:51;;;;;;;4.70;3.10;;;;;;;13.48;80.54;96749.19;8450621;28;20534;-67
2022/12/23 18:19:54;;;;;;;3.70;2.83;;;;;;;13.53;79.99;96754.03;8450333;28;20246;-68
2022/12/23 18:23:59;;;;;;;4.03;2.70;;;;;;;13.55;80.10;96736.53;8450318;28;20225;-68
2022/12/23 18:28:03;;;;;;;2.43;2.23;;;;;;;13.48;79.71;96717.97;8450265;28;20231;-68
2022/12/23 18:32:06;;;;;;;2.83;1.90;;;;;;;13.60;79.72;96747.44;8450595;28;20532;-67
2022/12/23 18:36:17;;;;;;;2.33;1.10;;;;;;;13.59;79.99;96732.75;8450829;28;20243;-67
2022/12/23 18:40:22;;;;;;;1.10;1.10;;;;;;;13.63;79.89;96748.94;8450230;28;20234;-67
2022/12/23 18:44:32;;;;;;;0.87;0.87;;;;;;;13.69;79.54;96751.94;8449592;28;20302;-67
2022/12/23 18:48:35;;;;;;;1.47;1.33;;;;;;;13.72;79.96;96753.47;8449511;28;20238;-67
2022/12/23 18:52:38;;;;;;;1.57;1.20;;;;;;;13.64;79.50;96763.63;8449700;28;20249;-67
2022/12/23 18:56:45;;;;;;;1.27;1.20;;;;;;;13.65;79.95;96765.28;8449533;28;20238;-67
2022/12/23 19:00:49;;;;;;;1.10;1.10;;;;;;;13.43;80.72;96753.91;8449284;28;20241;-68
2022/12/23 19:04:52;;;;;;;0.90;0.90;;;;;;;13.75;79.32;96781.84;8448865;28;20432;-67
2022/12/23 19:08:55;;;;;;;1.20;1.10;;;;;;;13.74;79.06;96777.59;8447803;28;20513;-67
2022/12/23 19:12:59;;;;;;;0.80;0.80;;;;;;;13.70;79.35;96773.56;8448803;28;20231;-67
2022/12/23 19:17:02;;;;;;;1.57;0.87;;;;;;;13.75;78.63;96781.03;8449048;28;20238;-67
2022/12/23 19:21:05;;;;;;;0.90;0.90;;;;;;;13.77;78.82;96787.78;8448694;28;20233;-68
2022/12/23 19:25:09;;;;;;;0.70;0.70;;;;;;;13.71;78.42;96783.03;8448730;28;20472;-68
2022/12/23 19:29:13;;;;;;;1.80;1.43;;;;;;;13.72;78.37;96792.50;8448385;28;20227;-68
2022/12/23 19:33:16;;;;;;;1.10;1.00;;;;;;;13.69;78.33;96801.38;8448209;28;20230;-67
2022/12/23 19:37:19;;;;;;;1.60;1.50;;;;;;;13.69;79.04;96829.97;8448123;28;20467;-67
2022/12/23 19:41:22;;;;;;;6.67;4.50;;;;;;;13.58;78.26;96823.94;8447941;28;20235;-69